Time;durP1;ratioP1;P1;durP2;ratioP2;P2;SDS_P1;SDS_P2;PMS_P1;PMS_P2;Temp;Humidity;BMP_temperature;BMP_pressure;BME280_temperature;BME280_humidity;BME280_pressure;Samples;Min_cycle;Max_cycle;Signal;HPM_P1;HPM_P2
2021/10/31 00:01:35;;;;;;;43.87;24.23;;;;;;;5.70;78.40;100788.87;1723193;81;21749;-80
2021/10/31 00:04:01;;;;;;;40.40;23.70;;;;;;;5.68;78.38;100787.91;1723322;83;21532;-81
2021/10/31 00:06:28;;;;;;;37.93;23.30;;;;;;;5.65;78.38;100786.95;1723306;83;21552;-81
2021/10/31 00:08:56;;;;;;;35.52;23.52;;;;;;;5.67;78.47;100788.72;1693651;83;21081;-81
2021/10/31 00:11:23;;;;;;;39.13;23.95;;;;;;;5.65;78.43;100788.67;1723396;83;21069;-80
2021/10/31 00:13:50;;;;;;;40.63;24.72;;;;;;;5.64;78.45;100783.84;1723290;81;21750;-81
2021/10/31 00:16:16;;;;;;;37.83;22.50;;;;;;;5.64;78.45;100780.34;1723302;83;21058;-80
2021/10/31 00:18:43;;;;;;;38.80;24.07;;;;;;;5.63;78.48;100783.38;1723422;83;21598;-81
2021/10/31 00:21:10;;;;;;;38.00;23.98;;;;;;;5.63;78.47;100781.16;1723437;82;21065;-80
2021/10/31 00:23:36;;;;;;;36.13;22.55;;;;;;;5.62;78.44;100781.57;1723461;82;21034;-81
2021/10/31 00:26:03;;;;;;;40.55;23.42;;;;;;;5.60;78.43;100788.45;1723237;83;22597;-81
2021/10/31 00:28:30;;;;;;;32.13;22.05;;;;;;;5.58;78.46;100786.18;1723142;83;20999;-81
2021/10/31 00:30:56;;;;;;;37.70;23.83;;;;;;;5.56;78.37;100784.34;1723034;81;21030;-81
2021/10/31 00:33:23;;;;;;;35.92;22.85;;;;;;;5.52;78.33;100783.69;1723121;81;21571;-80
2021/10/31 00:35:50;;;;;;;34.00;22.52;;;;;;;5.50;78.38;100778.81;1723091;81;21590;-80
2021/10/31 00:38:17;;;;;;;42.15;22.98;;;;;;;5.48;78.45;100780.07;1723032;83;22908;-81
2021/10/31 00:40:44;;;;;;;40.98;24.27;;;;;;;5.48;78.43;100780.45;1723009;83;21614;-81
2021/10/31 00:43:11;;;;;;;41.98;25.88;;;;;;;5.47;78.44;100768.25;1723165;83;21136;-81
2021/10/31 00:45:39;;;;;;;43.33;25.08;;;;;;;5.42;78.40;100768.94;1723256;83;21065;-81
2021/10/31 00:48:05;;;;;;;41.10;24.60;;;;;;;5.40;78.42;100774.89;1716420;83;21034;-80
2021/10/31 00:50:32;;;;;;;38.65;24.65;;;;;;;5.37;78.42;100770.43;1715371;83;21952;-80
2021/10/31 00:52:59;;;;;;;38.08;23.62;;;;;;;5.35;78.44;100774.69;1715431;82;21057;-81
2021/10/31 00:55:26;;;;;;;39.45;24.63;;;;;;;5.34;78.52;100769.39;1715383;83;21146;-81
2021/10/31 00:57:54;;;;;;;43.70;25.02;;;;;;;5.29;78.42;100776.98;1715422;83;21602;-80
2021/10/31 01:00:21;;;;;;;41.58;24.67;;;;;;;5.25;78.39;100778.98;1715378;83;21133;-80
2021/10/31 01:02:47;;;;;;;35.92;23.00;;;;;;;5.22;78.44;100782.77;1715328;82;21751;-79
2021/10/31 01:05:17;;;;;;;36.83;23.15;;;;;;;5.19;78.50;100782.62;1715215;83;21599;-80
2021/10/31 01:08:16;;;;;;;40.85;22.82;;;;;;;5.17;78.55;100783.84;1715226;82;21097;-80
2021/10/31 01:11:09;;;;;;;35.25;23.50;;;;;;;5.14;78.59;100779.77;1715466;82;21617;-80
2021/10/31 01:14:21;;;;;;;39.95;23.70;;;;;;;5.14;78.68;100778.89;1715328;83;21423;-81
2021/10/31 01:17:17;;;;;;;35.40;23.05;;;;;;;5.14;78.74;100781.08;1715254;83;22415;-80
2021/10/31 01:20:06;;;;;;;35.30;22.00;;;;;;;5.15;78.75;100779.38;1703689;83;21110;-80
2021/10/31 01:22:51;;;;;;;36.68;21.55;;;;;;;5.12;78.69;100781.42;1715150;83;21050;-80
2021/10/31 01:25:46;;;;;;;38.78;23.42;;;;;;;5.10;78.72;100771.74;1714969;83;21050;-75
2021/10/31 01:28:45;;;;;;;41.75;23.87;;;;;;;5.07;78.71;100780.33;1715313;83;22311;-81
2021/10/31 01:31:54;;;;;;;39.65;23.65;;;;;;;5.09;78.79;100785.20;1715384;82;21323;-81
2021/10/31 01:34:42;;;;;;;42.53;23.25;;;;;;;5.06;78.80;100778.11;1715441;83;21404;-81
2021/10/31 01:37:34;;;;;;;39.50;24.18;;;;;;;5.04;78.79;100777.14;1715485;82;21074;-80
2021/10/31 01:40:44;;;;;;;41.48;25.40;;;;;;;5.02;78.77;100776.18;1715353;83;20999;-80
2021/10/31 01:43:31;;;;;;;47.40;24.12;;;;;;;5.00;78.81;100771.72;1715284;83;21093;-80
2021/10/31 01:46:07;;;;;;;35.48;23.18;;;;;;;4.97;78.73;100775.06;1714900;83;21770;-80
2021/10/31 01:49:15;;;;;;;39.92;22.35;;;;;;;4.93;78.72;100784.87;1721814;83;21124;-80
2021/10/31 01:51:46;;;;;;;47.93;23.77;;;;;;;4.91;78.83;100784.32;1722795;83;21070;-80
2021/10/31 01:54:21;;;;;;;42.38;22.85;;;;;;;4.93;79.05;100781.38;1723194;82;21057;-80
2021/10/31 01:56:51;;;;;;;40.08;23.98;;;;;;;4.95;79.03;100771.91;1722314;83;21101;-80
2021/10/31 01:59:41;;;;;;;41.35;22.02;;;;;;;4.96;79.10;100775.02;1722949;83;21779;-80
2021/10/31 02:02:10;;;;;;;34.70;20.88;;;;;;;5.00;79.19;100775.64;1722710;81;21070;-81
2021/10/31 02:04:37;;;;;;;34.95;21.65;;;;;;;5.03;79.15;100778.37;1722946;83;21085;-81
2021/10/31 02:07:05;;;;;;;34.13;21.80;;;;;;;5.04;79.13;100783.67;1722922;83;21155;-81
2021/10/31 02:09:34;;;;;;;34.00;21.70;;;;;;;5.06;79.06;100779.41;1723057;83;21065;-81
2021/10/31 02:12:01;;;;;;;36.75;21.55;;;;;;;5.07;79.10;100769.89;1722767;83;21764;-81
2021/10/31 02:14:28;;;;;;;37.17;21.97;;;;;;;5.11;79.08;100780.07;1722852;81;21076;-81
2021/10/31 02:16:55;;;;;;;37.48;21.17;;;;;;;5.12;79.10;100780.11;1723171;83;21531;-81
2021/10/31 02:19:25;;;;;;;37.65;20.88;;;;;;;5.17;79.19;100782.54;1723197;83;21049;-81
2021/10/31 02:21:57;;;;;;;36.53;20.77;;;;;;;5.20;79.20;100778.78;1723186;83;21081;-81
2021/10/31 02:24:23;;;;;;;31.33;19.30;;;;;;;5.24;79.20;100781.12;1723133;83;21843;-81
2021/10/31 02:26:50;;;;;;;35.83;20.20;;;;;;;5.29;79.22;100785.24;1722808;83;21393;-81
2021/10/31 02:29:17;;;;;;;41.15;21.05;;;;;;;5.32;79.19;100786.70;1722979;82;21070;-81
2021/10/31 02:31:44;;;;;;;30.75;20.55;;;;;;;5.35;79.13;100792.05;1722925;83;21579;-80
2021/10/31 02:34:11;;;;;;;35.38;21.85;;;;;;;5.40;79.10;100790.55;1723012;81;21061;-80
2021/10/31 02:36:37;;;;;;;32.30;21.00;;;;;;;5.42;79.09;100788.90;1722921;81;21795;-81
2021/10/31 02:39:05;;;;;;;33.75;21.33;;;;;;;5.44;79.06;100791.17;1723026;83;21076;-80
2021/10/31 02:41:33;;;;;;;34.80;21.27;;;;;;;5.50;79.04;100787.95;1723038;83;21053;-81
2021/10/31 02:44:00;;;;;;;35.98;20.88;;;;;;;5.52;78.95;100794.13;1723100;83;21082;-81
2021/10/31 02:46:31;;;;;;;28.90;19.12;;;;;;;5.55;78.95;100794.28;1723125;83;21065;-80
2021/10/31 02:48:58;;;;;;;35.95;21.07;;;;;;;5.59;78.93;100798.81;1723373;83;22362;-80
2021/10/31 02:51:42;;;;;;;36.28;20.05;;;;;;;5.61;78.92;100798.08;1723589;81;21152;-81
2021/10/31 02:54:37;;;;;;;35.30;20.50;;;;;;;5.67;78.89;100796.55;1723113;83;21054;-81
2021/10/31 02:57:14;;;;;;;31.05;18.73;;;;;;;5.73;78.84;100802.95;1723799;83;21575;-80
2021/10/31 02:59:48;;;;;;;30.82;20.70;;;;;;;5.78;78.83;100797.54;1723691;83;21741;-82
2021/10/31 03:02:15;;;;;;;31.00;19.25;;;;;;;5.82;78.81;100803.37;1696908;83;21768;-80
2021/10/31 03:04:42;;;;;;;34.23;21.52;;;;;;;5.87;78.78;100787.01;1723503;83;21085;-81
2021/10/31 03:07:09;;;;;;;31.73;21.50;;;;;;;5.89;78.64;100791.47;1723356;82;21575;-81
2021/10/31 03:09:35;;;;;;;31.50;19.75;;;;;;;5.93;78.63;100799.03;1723653;83;20994;-81
2021/10/31 03:12:08;;;;;;;33.67;21.35;;;;;;;5.95;78.61;100797.02;1723713;83;21049;-81
2021/10/31 03:14:35;;;;;;;31.07;20.45;;;;;;;6.01;78.60;100807.73;1723853;83;22579;-81
2021/10/31 03:17:03;;;;;;;30.23;20.23;;;;;;;6.06;78.54;100809.23;1723755;82;21639;-81
2021/10/31 03:19:29;;;;;;;32.45;19.52;;;;;;;6.09;78.48;100806.76;1723790;83;21109;-81
2021/10/31 03:21:56;;;;;;;28.27;20.02;;;;;;;6.15;78.43;100803.52;1723579;83;21128;-81
2021/10/31 03:24:26;;;;;;;36.28;20.77;;;;;;;6.16;78.37;100806.20;1723777;81;21050;-81
2021/10/31 03:26:51;;;;;;;32.75;19.25;;;;;;;6.18;78.32;100806.28;1723343;83;21982;-81
2021/10/31 03:29:21;;;;;;;27.87;17.73;;;;;;;6.20;78.26;100804.62;1723588;81;21528;-80
2021/10/31 03:31:46;;;;;;;31.62;19.60;;;;;;;6.23;78.27;100806.05;1723591;83;21053;-80
2021/10/31 03:34:13;;;;;;;30.82;19.50;;;;;;;6.25;78.19;100803.50;1723584;83;21025;-80
2021/10/31 03:36:39;;;;;;;30.52;18.73;;;;;;;6.25;78.14;100810.95;1723656;82;21041;-81
2021/10/31 03:39:07;;;;;;;33.48;18.17;;;;;;;6.26;78.13;100816.64;1723744;83;22427;-80
2021/10/31 03:41:33;;;;;;;32.25;19.40;;;;;;;6.27;78.11;100815.83;1723677;82;21653;-81
2021/10/31 03:44:00;;;;;;;32.35;19.25;;;;;;;6.29;78.09;100814.56;1723914;82;21077;-81
2021/10/31 03:46:27;;;;;;;27.37;18.82;;;;;;;6.30;78.03;100820.28;1723714;83;21083;-81
2021/10/31 03:48:54;;;;;;;31.52;18.02;;;;;;;6.31;77.97;100821.67;1723281;83;21571;-80
2021/10/31 03:51:21;;;;;;;28.20;19.05;;;;;;;6.31;77.92;100822.97;1723612;83;21817;-80
2021/10/31 03:53:47;;;;;;;26.85;18.12;;;;;;;6.32;77.92;100826.05;1723399;82;21182;-81
2021/10/31 03:56:14;;;;;;;31.10;18.60;;;;;;;6.34;77.91;100835.27;1723337;83;21014;-81
2021/10/31 03:58:41;;;;;;;29.02;17.50;;;;;;;6.37;77.91;100831.50;1723473;83;21112;-80
2021/10/31 04:01:07;;;;;;;34.23;19.35;;;;;;;6.40;77.87;100835.14;1723591;81;22176;-80
2021/10/31 04:03:34;;;;;;;28.85;18.50;;;;;;;6.41;77.79;100838.21;1723514;83;22606;-80
2021/10/31 04:06:01;;;;;;;26.40;17.60;;;;;;;6.43;77.74;100836.98;1723490;83;21046;-80
2021/10/31 04:08:27;;;;;;;26.95;17.67;;;;;;;6.45;77.70;100836.63;1723693;81;21599;-81
2021/10/31 04:10:54;;;;;;;29.57;18.12;;;;;;;6.45;77.62;100839.24;1723680;82;21057;-81
2021/10/31 04:13:21;;;;;;;33.83;18.02;;;;;;;6.43;77.60;100841.78;1723725;83;21080;-81
2021/10/31 04:15:47;;;;;;;25.40;18.12;;;;;;;6.47;77.55;100840.63;1723805;83;21763;-81
2021/10/31 04:18:14;;;;;;;27.27;18.35;;;;;;;6.46;77.48;100834.51;1723781;83;21527;-81
2021/10/31 04:20:41;;;;;;;29.23;18.27;;;;;;;6.45;77.46;100831.40;1723747;83;21524;-81
2021/10/31 04:23:07;;;;;;;31.15;18.02;;;;;;;6.46;77.43;100835.81;1723734;83;21038;-81
2021/10/31 04:25:34;;;;;;;26.82;18.10;;;;;;;6.45;77.40;100837.05;1723646;83;22289;-81
2021/10/31 04:28:01;;;;;;;25.60;17.65;;;;;;;6.42;77.35;100836.52;1723723;83;21737;-81
2021/10/31 04:30:27;;;;;;;28.73;17.85;;;;;;;6.40;77.34;100840.37;1723597;83;21507;-81
2021/10/31 04:32:54;;;;;;;27.25;18.00;;;;;;;6.40;77.34;100846.91;1723574;83;21069;-81
2021/10/31 04:35:21;;;;;;;27.42;18.17;;;;;;;6.39;77.31;100840.30;1723768;81;21081;-81
2021/10/31 04:37:47;;;;;;;30.82;19.40;;;;;;;6.38;77.29;100843.72;1723720;83;21100;-81
2021/10/31 04:40:16;;;;;;;30.50;18.92;;;;;;;6.37;77.30;100844.14;1723883;83;21653;-81
2021/10/31 04:42:42;;;;;;;29.40;19.12;;;;;;;6.38;77.29;100844.64;1723565;83;21069;-81
2021/10/31 04:45:09;;;;;;;35.33;19.85;;;;;;;6.39;77.22;100848.14;1723870;83;21066;-81
2021/10/31 04:47:36;;;;;;;26.00;18.65;;;;;;;6.40;77.26;100851.22;1723827;81;21146;-80
2021/10/31 04:50:04;;;;;;;28.60;18.05;;;;;;;6.40;77.19;100849.52;1723467;82;21065;-81
2021/10/31 04:52:31;;;;;;;29.82;18.57;;;;;;;6.42;77.16;100853.52;1723756;82;21786;-81
2021/10/31 04:54:58;;;;;;;31.50;18.00;;;;;;;6.45;77.22;100859.28;1723645;83;21133;-81
2021/10/31 04:57:27;;;;;;;33.65;18.37;;;;;;;6.43;77.14;100853.55;1696367;83;21018;-81
2021/10/31 04:59:53;;;;;;;45.45;25.75;;;;;;;6.42;77.06;100853.52;1723675;81;21069;-80
2021/10/31 05:02:22;;;;;;;50.28;26.12;;;;;;;6.43;77.08;100854.86;1723459;81;21053;-81
2021/10/31 05:04:49;;;;;;;47.93;27.22;;;;;;;6.43;77.08;100857.47;1697379;83;21751;-81
2021/10/31 05:07:16;;;;;;;50.30;28.23;;;;;;;6.43;77.01;100858.78;1723780;83;21465;-81
2021/10/31 05:09:43;;;;;;;50.92;28.52;;;;;;;6.43;77.02;100865.73;1723681;83;21045;-81
2021/10/31 05:12:10;;;;;;;44.10;25.62;;;;;;;6.40;76.96;100869.52;1723509;83;21562;-81
2021/10/31 05:14:39;;;;;;;36.93;23.40;;;;;;;6.39;76.96;100878.20;1723251;83;21053;-81
2021/10/31 05:17:06;;;;;;;39.95;22.37;;;;;;;6.35;76.94;100871.95;1723365;83;21774;-81
2021/10/31 05:19:33;;;;;;;39.03;23.10;;;;;;;6.32;76.98;100870.91;1723372;82;21053;-80
2021/10/31 05:22:00;;;;;;;37.93;22.10;;;;;;;6.28;76.98;100859.42;1723446;83;21572;-81
2021/10/31 05:24:27;;;;;;;32.15;20.30;;;;;;;6.28;77.03;100872.92;1723454;83;21015;-81
2021/10/31 05:26:53;;;;;;;30.57;19.40;;;;;;;6.25;77.04;100868.84;1723596;83;21614;-81
2021/10/31 05:29:20;;;;;;;28.92;19.30;;;;;;;6.23;77.07;100863.55;1723558;83;22582;-80
2021/10/31 05:31:48;;;;;;;30.02;19.57;;;;;;;6.23;77.11;100873.61;1723198;83;39009;-80
2021/10/31 05:34:15;;;;;;;31.93;19.95;;;;;;;6.22;77.13;100873.12;1723561;83;21030;-81
2021/10/31 05:36:41;;;;;;;32.30;19.70;;;;;;;6.24;77.20;100873.19;1723698;83;21194;-81
2021/10/31 05:39:08;;;;;;;32.55;20.35;;;;;;;6.25;77.20;100875.00;1723778;83;20983;-81
2021/10/31 05:41:35;;;;;;;34.60;21.42;;;;;;;6.27;77.21;100875.03;1723628;82;22692;-81
2021/10/31 05:44:01;;;;;;;27.40;18.57;;;;;;;6.27;77.17;100873.34;1723344;83;21112;-81
2021/10/31 05:46:28;;;;;;;37.75;21.17;;;;;;;6.27;77.14;100882.88;1723600;83;21575;-81
2021/10/31 05:48:55;;;;;;;30.17;18.92;;;;;;;6.26;77.10;100888.95;1723231;83;21089;-81
2021/10/31 05:51:22;;;;;;;28.87;18.77;;;;;;;6.26;77.09;100883.72;1723482;83;21113;-81
2021/10/31 05:53:48;;;;;;;33.63;20.10;;;;;;;6.26;77.08;100891.14;1723802;82;21778;-81
2021/10/31 05:56:15;;;;;;;32.30;21.10;;;;;;;6.26;77.08;100897.67;1723909;82;21038;-81
2021/10/31 05:58:42;;;;;;;29.98;20.00;;;;;;;6.26;77.08;100894.18;1723869;83;21164;-81
2021/10/31 06:01:09;;;;;;;31.27;20.30;;;;;;;6.28;77.09;100900.37;1723855;83;21066;-81
2021/10/31 06:03:35;;;;;;;33.53;21.77;;;;;;;6.28;77.13;100905.59;1723812;83;21065;-81
2021/10/31 06:06:02;;;;;;;32.73;20.85;;;;;;;6.28;77.09;100898.64;1723766;83;21803;-81
2021/10/31 06:08:29;;;;;;;28.57;19.75;;;;;;;6.30;77.07;100906.55;1723589;83;21547;-81
2021/10/31 06:10:58;;;;;;;26.05;19.40;;;;;;;6.32;77.15;100914.94;1723762;81;21057;-81
2021/10/31 06:13:24;;;;;;;36.48;20.27;;;;;;;6.34;77.13;100920.23;1723598;82;21532;-81
2021/10/31 06:15:50;;;;;;;30.68;19.60;;;;;;;6.34;77.08;100918.94;1723796;83;21038;-80
2021/10/31 06:18:18;;;;;;;31.23;21.30;;;;;;;6.33;77.09;100914.55;1723797;83;22339;-81
2021/10/31 06:20:45;;;;;;;34.90;20.68;;;;;;;6.32;77.07;100912.32;1723615;82;21190;-81
2021/10/31 06:23:11;;;;;;;29.67;20.20;;;;;;;6.32;77.09;100914.94;1723753;82;21556;-81
2021/10/31 06:25:38;;;;;;;30.12;21.30;;;;;;;6.32;77.15;100907.09;1723696;83;21207;-80
2021/10/31 06:28:05;;;;;;;29.50;20.30;;;;;;;6.35;77.21;100907.24;1723696;83;21133;-81
2021/10/31 06:30:31;;;;;;;30.48;19.37;;;;;;;6.41;77.24;100913.16;1723683;83;21726;-81
2021/10/31 06:32:58;;;;;;;26.33;18.65;;;;;;;6.47;77.24;100911.22;1723608;83;21073;-80
2021/10/31 06:35:25;;;;;;;34.15;19.57;;;;;;;6.52;77.24;100918.87;1723594;83;21058;-80
2021/10/31 06:37:52;;;;;;;29.23;19.40;;;;;;;6.56;77.24;100919.48;1723623;83;21120;-80
2021/10/31 06:40:18;;;;;;;28.20;19.40;;;;;;;6.61;77.22;100925.39;1723669;83;21058;-81
2021/10/31 06:42:45;;;;;;;28.15;18.45;;;;;;;6.69;77.27;100928.76;1723746;83;21751;-81
2021/10/31 06:45:12;;;;;;;29.18;19.62;;;;;;;6.78;77.27;100931.78;1723801;81;21563;-80
2021/10/31 06:47:38;;;;;;;27.20;18.75;;;;;;;6.88;77.26;100936.98;1723785;83;21046;-81
2021/10/31 06:50:06;;;;;;;29.75;19.45;;;;;;;6.94;77.20;100936.81;1723364;83;21587;-81
2021/10/31 06:52:37;;;;;;;27.95;20.52;;;;;;;7.05;77.18;100935.08;1723527;81;21575;-80
2021/10/31 06:55:03;;;;;;;32.42;20.45;;;;;;;7.14;77.16;100935.47;1723139;83;21711;-81
2021/10/31 06:57:30;;;;;;;28.47;19.48;;;;;;;7.23;77.09;100931.05;1723609;82;21065;-81
2021/10/31 06:59:57;;;;;;;27.10;19.20;;;;;;;7.25;77.00;100914.98;1723583;81;21675;-81
2021/10/31 07:02:23;;;;;;;28.47;18.15;;;;;;;7.40;76.94;100929.58;1723693;82;21078;-81
2021/10/31 07:04:50;;;;;;;27.98;19.77;;;;;;;7.51;76.91;100927.83;1723609;81;21101;-81
2021/10/31 07:07:16;;;;;;;27.67;19.42;;;;;;;7.58;76.78;100935.98;1723734;83;21747;-81
2021/10/31 07:09:43;;;;;;;27.73;19.50;;;;;;;7.65;76.73;100928.36;1723506;83;21072;-81
2021/10/31 07:12:10;;;;;;;32.50;20.57;;;;;;;7.73;76.65;100933.47;1723603;83;22214;-81
2021/10/31 07:14:37;;;;;;;26.80;18.85;;;;;;;7.79;76.60;100934.63;1723573;83;21473;-81
2021/10/31 07:17:04;;;;;;;29.37;19.90;;;;;;;7.87;76.54;100940.16;1723603;82;21093;-81
2021/10/31 07:19:31;;;;;;;27.82;19.27;;;;;;;7.95;76.48;100936.52;1723531;82;21751;-81
2021/10/31 07:21:57;;;;;;;29.75;19.50;;;;;;;8.04;76.43;100938.62;1723392;83;21062;-81
2021/10/31 07:24:24;;;;;;;27.45;19.32;;;;;;;8.14;76.40;100938.11;1723601;83;21112;-81
2021/10/31 07:26:51;;;;;;;28.50;20.50;;;;;;;8.25;76.33;100935.48;1723503;83;21535;-81
2021/10/31 07:29:17;;;;;;;25.75;18.15;;;;;;;8.36;76.26;100933.27;1723582;83;21038;-81
2021/10/31 07:31:48;;;;;;;30.30;21.87;;;;;;;8.47;76.17;100937.63;1723650;83;21703;-81
2021/10/31 07:34:14;;;;;;;27.90;20.15;;;;;;;8.61;76.10;100944.25;1723748;83;21034;-81
2021/10/31 07:36:42;;;;;;;29.80;21.52;;;;;;;8.73;75.94;100947.33;1723719;82;21575;-81
2021/10/31 07:39:09;;;;;;;28.87;21.50;;;;;;;8.84;75.81;100946.80;1723581;83;21253;-81
2021/10/31 07:41:37;;;;;;;26.37;20.85;;;;;;;8.96;75.71;100952.49;1723611;83;21014;-81
2021/10/31 07:44:04;;;;;;;27.17;20.02;;;;;;;9.05;75.56;100948.87;1723604;83;22433;-81
2021/10/31 07:46:33;;;;;;;28.42;20.27;;;;;;;9.15;75.41;100961.46;1723536;81;21002;-81
2021/10/31 07:49:04;;;;;;;29.52;20.97;;;;;;;9.24;75.23;100958.27;1723487;81;21140;-81
2021/10/31 07:51:29;;;;;;;31.12;21.73;;;;;;;9.31;75.02;100955.44;1723140;82;21096;-81
2021/10/31 07:53:56;;;;;;;34.35;24.27;;;;;;;9.37;74.97;100960.00;1723544;82;21080;-80
2021/10/31 07:56:25;;;;;;;31.40;22.52;;;;;;;9.45;74.84;100963.34;1695735;83;21768;-81
2021/10/31 07:58:55;;;;;;;28.83;19.60;;;;;;;9.53;74.74;100960.56;1723462;82;21073;-80
2021/10/31 08:01:20;;;;;;;28.42;19.90;;;;;;;9.62;74.64;100963.88;1723240;82;21101;-81
2021/10/31 08:03:48;;;;;;;29.95;21.45;;;;;;;9.68;74.49;100956.19;1723280;82;21068;-81
2021/10/31 08:06:15;;;;;;;28.98;21.65;;;;;;;9.79;74.46;100964.42;1723685;83;21054;-81
2021/10/31 08:08:42;;;;;;;31.68;22.22;;;;;;;9.88;74.22;100965.14;1723702;83;21755;-80
2021/10/31 08:11:08;;;;;;;28.77;20.88;;;;;;;9.96;74.15;100959.69;1723769;83;21057;-81
2021/10/31 08:13:35;;;;;;;30.65;22.22;;;;;;;10.04;74.05;100967.41;1723899;83;22096;-81
2021/10/31 08:16:02;;;;;;;29.87;20.20;;;;;;;10.11;73.87;100964.09;1723751;82;21338;-81
2021/10/31 08:18:29;;;;;;;27.85;21.75;;;;;;;10.21;73.75;100972.27;1723790;81;21587;-81
2021/10/31 08:20:56;;;;;;;30.12;22.13;;;;;;;10.27;73.71;100976.41;1723923;82;23533;-81
2021/10/31 08:23:23;;;;;;;30.35;21.60;;;;;;;10.36;73.61;100975.81;1723898;82;21501;-81
2021/10/31 08:25:50;;;;;;;28.32;20.50;;;;;;;10.42;73.44;100970.75;1723879;81;21097;-81
2021/10/31 08:28:19;;;;;;;32.08;21.07;;;;;;;10.48;73.36;100970.48;1723705;83;21155;-81
2021/10/31 08:30:54;;;;;;;28.98;20.55;;;;;;;10.55;73.16;100969.33;1723742;81;21654;-81
2021/10/31 08:33:20;;;;;;;29.60;20.68;;;;;;;10.63;73.15;100971.78;1722296;83;21784;-81
2021/10/31 08:35:47;;;;;;;29.98;20.82;;;;;;;10.71;72.91;100971.56;1723479;82;21073;-80
2021/10/31 08:38:13;;;;;;;31.23;21.48;;;;;;;10.76;72.71;100973.91;1723430;82;21025;-81
2021/10/31 08:40:41;;;;;;;29.95;21.20;;;;;;;10.84;72.67;100979.37;1723222;82;21050;-81
2021/10/31 08:43:08;;;;;;;29.80;22.22;;;;;;;10.92;72.57;100979.16;1723586;82;21078;-81
2021/10/31 08:45:36;;;;;;;29.15;22.37;;;;;;;10.99;72.54;100970.57;1723487;82;21753;-81
2021/10/31 08:48:03;;;;;;;28.52;21.70;;;;;;;11.07;72.35;100973.41;1723524;83;21038;-81
2021/10/31 08:50:30;;;;;;;34.45;25.92;;;;;;;11.14;72.23;100964.82;1716765;82;21069;-81
2021/10/31 08:52:57;;;;;;;33.58;22.20;;;;;;;11.22;72.19;100972.92;1714982;83;22546;-81
2021/10/31 08:55:25;;;;;;;28.42;21.68;;;;;;;11.31;72.14;100967.00;1715454;83;21050;-81
2021/10/31 08:57:52;;;;;;;25.02;20.08;;;;;;;11.40;72.14;100972.08;1715343;83;21757;-81
2021/10/31 09:00:18;;;;;;;29.15;20.82;;;;;;;11.51;72.06;100974.11;1715155;83;21062;-81
2021/10/31 09:02:45;;;;;;;28.90;20.37;;;;;;;11.61;71.91;100970.39;1715163;83;21034;-81
2021/10/31 09:05:12;;;;;;;28.90;20.57;;;;;;;11.72;71.86;100970.66;1715162;83;21610;-80
2021/10/31 09:07:38;;;;;;;25.45;20.43;;;;;;;11.84;71.76;100975.31;1715385;83;21038;-80
2021/10/31 09:10:07;;;;;;;31.37;20.52;;;;;;;11.95;71.69;100976.48;1715313;83;21741;-81
2021/10/31 09:12:33;;;;;;;25.52;19.60;;;;;;;12.05;71.47;100977.18;1715287;83;21082;-81
2021/10/31 09:15:00;;;;;;;25.97;19.48;;;;;;;12.15;71.28;100982.67;1715417;83;21088;-81
2021/10/31 09:17:26;;;;;;;27.02;20.15;;;;;;;12.21;71.11;100983.67;1715427;83;21046;-81
2021/10/31 09:19:53;;;;;;;25.68;18.98;;;;;;;12.27;70.97;100988.63;1715327;83;21063;-80
2021/10/31 09:22:20;;;;;;;28.07;22.60;;;;;;;12.32;70.84;100984.36;1715292;83;22533;-81
2021/10/31 09:24:48;;;;;;;31.12;19.98;;;;;;;12.37;70.83;100987.96;1715252;82;21454;-81
2021/10/31 09:27:15;;;;;;;27.20;21.95;;;;;;;12.42;70.78;100990.28;1715275;82;21558;-81
2021/10/31 09:29:42;;;;;;;27.35;19.90;;;;;;;12.46;70.71;100986.84;1715246;83;21060;-82
2021/10/31 09:32:08;;;;;;;31.70;23.12;;;;;;;12.53;70.67;100986.55;1715272;82;21560;-81
2021/10/31 09:34:35;;;;;;;27.20;20.90;;;;;;;12.59;70.63;100994.19;1715169;83;21821;-81
2021/10/31 09:37:03;;;;;;;24.35;20.00;;;;;;;12.68;70.57;100993.91;1715329;83;21042;-81
2021/10/31 09:39:30;;;;;;;22.90;19.07;;;;;;;12.78;70.52;100991.48;1715519;83;21126;-81
2021/10/31 09:41:57;;;;;;;25.27;18.73;;;;;;;12.96;70.37;100990.93;1715297;83;21129;-81
2021/10/31 09:44:30;;;;;;;23.85;18.25;;;;;;;13.11;70.27;100981.52;1715344;83;21101;-81
2021/10/31 09:46:52;;;;;;;25.40;20.02;;;;;;;13.25;70.09;100982.67;1714090;83;21775;-82
2021/10/31 09:49:20;;;;;;;23.57;18.75;;;;;;;13.38;70.00;100984.70;1715195;83;21478;-81
2021/10/31 09:51:50;;;;;;;28.35;19.00;;;;;;;13.53;69.95;100985.80;1715006;83;21627;-82
2021/10/31 09:54:17;;;;;;;25.25;18.37;;;;;;;13.69;69.75;100982.55;1715256;83;21117;-82
2021/10/31 09:56:44;;;;;;;25.15;18.62;;;;;;;13.87;69.68;100975.75;1715532;83;21516;-83
2021/10/31 09:59:12;;;;;;;23.83;17.77;;;;;;;14.06;69.35;100974.27;1715263;83;21759;-82
2021/10/31 10:04:37;;;;;;;21.85;17.67;;;;;;;14.28;68.76;100972.80;1715135;83;21045;-82
2021/10/31 10:07:07;;;;;;;22.20;17.80;;;;;;;14.27;68.40;100973.25;1715396;83;21731;-82
2021/10/31 10:09:35;;;;;;;23.40;19.23;;;;;;;14.25;68.27;100970.14;1715266;83;21555;-82
2021/10/31 10:12:13;;;;;;;20.82;16.57;;;;;;;14.24;68.24;100965.25;1715207;83;21754;-82
2021/10/31 10:14:40;;;;;;;20.82;17.23;;;;;;;14.27;68.16;100968.40;1715591;83;21094;-82
2021/10/31 10:17:15;;;;;;;22.58;17.25;;;;;;;14.29;68.03;100967.98;1715191;83;21054;-82
2021/10/31 10:19:52;;;;;;;23.32;18.02;;;;;;;14.31;68.02;100967.56;1714183;83;21258;-82
2021/10/31 10:22:22;;;;;;;21.30;17.82;;;;;;;14.32;67.98;100971.97;1715052;83;21069;-82
2021/10/31 10:24:55;;;;;;;25.88;18.85;;;;;;;14.33;67.92;100968.03;1715168;83;21769;-82
2021/10/31 10:27:27;;;;;;;21.85;17.60;;;;;;;14.36;68.00;100965.87;1715394;83;21042;-82
2021/10/31 10:29:55;;;;;;;22.45;17.92;;;;;;;14.40;67.88;100971.66;1715226;83;21113;-81
2021/10/31 10:32:24;;;;;;;22.82;18.45;;;;;;;14.38;67.67;100968.11;1715308;83;21015;-81
2021/10/31 10:34:56;;;;;;;25.05;20.35;;;;;;;14.36;67.54;100964.55;1715234;83;21666;-80
2021/10/31 10:37:36;;;;;;;25.55;19.42;;;;;;;14.36;67.47;100960.58;1713498;83;21782;-81
2021/10/31 10:40:06;;;;;;;22.48;18.80;;;;;;;14.34;67.33;100957.91;1715258;83;21085;-81
2021/10/31 10:42:41;;;;;;;28.85;19.35;;;;;;;14.35;67.21;100954.81;1715496;83;21545;-83
2021/10/31 10:45:10;;;;;;;24.77;17.40;;;;;;;14.37;67.26;100950.42;1714326;83;21110;-80
2021/10/31 10:47:42;;;;;;;26.00;18.10;;;;;;;14.41;67.27;100948.27;1715252;83;21133;-81
2021/10/31 10:50:29;;;;;;;22.40;17.30;;;;;;;14.45;67.12;100947.45;1715276;83;21821;-81
2021/10/31 10:52:55;;;;;;;20.60;16.77;;;;;;;14.51;67.18;100954.14;1715101;83;21034;-80
2021/10/31 10:55:28;;;;;;;19.42;17.10;;;;;;;14.56;67.10;100949.80;1715415;83;21042;-81
2021/10/31 10:57:59;;;;;;;24.37;17.23;;;;;;;14.61;67.11;100956.94;1715522;83;21007;-81
2021/10/31 11:00:34;;;;;;;23.55;18.02;;;;;;;14.65;67.12;100962.27;1715627;83;21022;-80
2021/10/31 11:03:05;;;;;;;20.92;17.55;;;;;;;14.69;66.99;100965.41;1715506;83;21770;-81
2021/10/31 11:05:44;;;;;;;22.15;17.77;;;;;;;14.71;66.76;100958.80;1714699;82;21547;-81
2021/10/31 11:08:16;;;;;;;23.98;17.90;;;;;;;14.73;66.64;100955.73;1715507;83;21041;-81
2021/10/31 11:10:58;;;;;;;22.95;17.85;;;;;;;14.71;66.58;100957.48;1715706;83;21074;-81
2021/10/31 11:13:30;;;;;;;20.88;17.82;;;;;;;14.72;66.57;100959.27;1715716;83;21026;-82
2021/10/31 11:15:59;;;;;;;22.50;18.52;;;;;;;14.73;66.61;100955.73;1715659;83;21825;-82
2021/10/31 11:18:26;;;;;;;22.02;18.55;;;;;;;14.74;66.47;100957.53;1715760;83;20987;-82
2021/10/31 11:20:52;;;;;;;26.12;18.95;;;;;;;14.76;66.52;100954.02;1715849;83;21073;-82
2021/10/31 11:23:21;;;;;;;23.02;18.30;;;;;;;14.81;66.60;100958.47;1715681;83;21069;-82
2021/10/31 11:25:48;;;;;;;20.88;18.42;;;;;;;14.85;66.60;100957.20;1715715;82;21028;-82
2021/10/31 11:28:17;;;;;;;24.32;18.67;;;;;;;14.87;66.49;100947.52;1715684;83;21900;-82